sensor_id;sensor_type;location;lat;lon;timestamp;P1;durP1;ratioP1;P2;durP2;ratioP2
51594;SDS011;37677;53.254;6.594;2023-12-14T00:00:11;10.25;;;6.75;;
51594;SDS011;37677;53.254;6.594;2023-12-14T00:02:37;9.13;;;6.55;;
51594;SDS011;37677;53.254;6.594;2023-12-14T00:05:09;8.82;;;5.90;;
51594;SDS011;37677;53.254;6.594;2023-12-14T00:07:35;9.55;;;6.38;;
51594;SDS011;37677;53.254;6.594;2023-12-14T00:10:03;8.82;;;5.88;;
51594;SDS011;37677;53.254;6.594;2023-12-14T00:12:30;6.40;;;5.57;;
51594;SDS011;37677;53.254;6.594;2023-12-14T00:14:58;9.30;;;6.22;;
51594;SDS011;37677;53.254;6.594;2023-12-14T00:17:24;8.85;;;6.32;;
51594;SDS011;37677;53.254;6.594;2023-12-14T00:19:50;11.77;;;6.95;;
51594;SDS011;37677;53.254;6.594;2023-12-14T00:22:21;8.30;;;6.55;;
51594;SDS011;37677;53.254;6.594;2023-12-14T00:24:47;7.90;;;5.95;;
51594;SDS011;37677;53.254;6.594;2023-12-14T00:27:13;9.13;;;6.85;;
51594;SDS011;37677;53.254;6.594;2023-12-14T00:29:39;9.07;;;6.75;;
51594;SDS011;37677;53.254;6.594;2023-12-14T00:32:07;8.57;;;6.72;;
51594;SDS011;37677;53.254;6.594;2023-12-14T00:34:33;7.90;;;5.70;;
51594;SDS011;37677;53.254;6.594;2023-12-14T00:37:00;8.40;;;5.60;;
51594;SDS011;37677;53.254;6.594;2023-12-14T00:39:26;8.27;;;5.38;;
51594;SDS011;37677;53.254;6.594;2023-12-14T00:41:52;6.70;;;5.97;;
51594;SDS011;37677;53.254;6.594;2023-12-14T00:44:20;7.28;;;5.63;;
51594;SDS011;37677;53.254;6.594;2023-12-14T00:46:46;12.98;;;6.78;;
51594;SDS011;37677;53.254;6.594;2023-12-14T00:49:13;10.57;;;7.07;;
51594;SDS011;37677;53.254;6.594;2023-12-14T00:51:43;8.07;;;6.50;;
51594;SDS011;37677;53.254;6.594;2023-12-14T00:54:10;12.52;;;7.63;;
51594;SDS011;37677;53.254;6.594;2023-12-14T00:56:36;11.80;;;7.47;;
51594;SDS011;37677;53.254;6.594;2023-12-14T00:59:02;12.07;;;7.53;;
51594;SDS011;37677;53.254;6.594;2023-12-14T01:01:28;12.05;;;7.65;;
51594;SDS011;37677;53.254;6.594;2023-12-14T01:03:54;15.70;;;9.27;;
51594;SDS011;37677;53.254;6.594;2023-12-14T01:06:21;15.15;;;8.65;;
51594;SDS011;37677;53.254;6.594;2023-12-14T01:08:47;13.10;;;9.02;;
51594;SDS011;37677;53.254;6.594;2023-12-14T01:11:14;15.35;;;8.98;;
51594;SDS011;37677;53.254;6.594;2023-12-14T01:13:43;14.43;;;9.43;;
51594;SDS011;37677;53.254;6.594;2023-12-14T01:16:09;16.05;;;10.02;;
51594;SDS011;37677;53.254;6.594;2023-12-14T01:18:48;12.20;;;9.27;;
51594;SDS011;37677;53.254;6.594;2023-12-14T01:21:15;14.52;;;9.30;;
51594;SDS011;37677;53.254;6.594;2023-12-14T01:23:41;13.90;;;9.07;;
51594;SDS011;37677;53.254;6.594;2023-12-14T01:26:07;15.95;;;9.73;;
51594;SDS011;37677;53.254;6.594;2023-12-14T01:28:35;14.98;;;9.45;;
51594;SDS011;37677;53.254;6.594;2023-12-14T01:31:01;18.77;;;9.88;;
51594;SDS011;37677;53.254;6.594;2023-12-14T01:36:02;13.65;;;8.90;;
51594;SDS011;37677;53.254;6.594;2023-12-14T01:38:28;18.60;;;9.75;;
51594;SDS011;37677;53.254;6.594;2023-12-14T01:40:54;14.45;;;9.50;;
51594;SDS011;37677;53.254;6.594;2023-12-14T01:43:24;18.23;;;9.75;;
51594;SDS011;37677;53.254;6.594;2023-12-14T01:45:50;12.90;;;7.97;;
51594;SDS011;37677;53.254;6.594;2023-12-14T01:48:16;13.27;;;8.88;;
51594;SDS011;37677;53.254;6.594;2023-12-14T01:50:42;16.75;;;9.10;;
51594;SDS011;37677;53.254;6.594;2023-12-14T01:53:08;14.63;;;8.98;;
51594;SDS011;37677;53.254;6.594;2023-12-14T01:55:35;10.38;;;7.65;;
51594;SDS011;37677;53.254;6.594;2023-12-14T01:58:02;12.25;;;8.07;;
51594;SDS011;37677;53.254;6.594;2023-12-14T02:03:01;11.48;;;8.60;;
51594;SDS011;37677;53.254;6.594;2023-12-14T02:05:28;18.27;;;8.63;;
51594;SDS011;37677;53.254;6.594;2023-12-14T02:07:54;11.38;;;7.70;;
51594;SDS011;37677;53.254;6.594;2023-12-14T02:10:22;15.75;;;8.20;;
51594;SDS011;37677;53.254;6.594;2023-12-14T02:12:48;12.27;;;8.63;;
51594;SDS011;37677;53.254;6.594;2023-12-14T02:15:14;16.27;;;9.00;;
51594;SDS011;37677;53.254;6.594;2023-12-14T02:22:52;12.27;;;8.57;;
51594;SDS011;37677;53.254;6.594;2023-12-14T02:25:26;11.70;;;7.95;;
51594;SDS011;37677;53.254;6.594;2023-12-14T02:27:57;18.70;;;8.85;;
51594;SDS011;37677;53.254;6.594;2023-12-14T02:30:23;14.98;;;8.77;;
51594;SDS011;37677;53.254;6.594;2023-12-14T02:32:50;12.85;;;7.85;;
51594;SDS011;37677;53.254;6.594;2023-12-14T02:35:19;14.30;;;8.60;;
51594;SDS011;37677;53.254;6.594;2023-12-14T02:37:48;14.55;;;9.05;;
51594;SDS011;37677;53.254;6.594;2023-12-14T02:40:14;14.75;;;7.55;;
51594;SDS011;37677;53.254;6.594;2023-12-14T02:42:40;13.10;;;7.80;;
51594;SDS011;37677;53.254;6.594;2023-12-14T02:45:18;13.48;;;8.20;;
51594;SDS011;37677;53.254;6.594;2023-12-14T02:50:43;10.27;;;7.15;;
51594;SDS011;37677;53.254;6.594;2023-12-14T02:55:36;12.37;;;7.77;;
51594;SDS011;37677;53.254;6.594;2023-12-14T02:58:03;12.38;;;7.85;;
51594;SDS011;37677;53.254;6.594;2023-12-14T03:00:31;15.77;;;8.10;;
51594;SDS011;37677;53.254;6.594;2023-12-14T03:02:58;15.02;;;8.57;;
51594;SDS011;37677;53.254;6.594;2023-12-14T03:05:24;17.05;;;9.23;;
51594;SDS011;37677;53.254;6.594;2023-12-14T03:10:20;14.48;;;8.70;;
51594;SDS011;37677;53.254;6.594;2023-12-14T03:12:47;19.70;;;8.55;;
51594;SDS011;37677;53.254;6.594;2023-12-14T03:15:13;10.48;;;7.40;;
51594;SDS011;37677;53.254;6.594;2023-12-14T03:17:39;13.90;;;8.05;;
51594;SDS011;37677;53.254;6.594;2023-12-14T03:20:06;15.77;;;7.95;;
51594;SDS011;37677;53.254;6.594;2023-12-14T03:22:36;11.98;;;7.35;;
51594;SDS011;37677;53.254;6.594;2023-12-14T03:25:04;12.93;;;7.55;;
51594;SDS011;37677;53.254;6.594;2023-12-14T03:27:31;15.13;;;7.80;;
51594;SDS011;37677;53.254;6.594;2023-12-14T03:29:58;19.85;;;9.82;;
51594;SDS011;37677;53.254;6.594;2023-12-14T03:32:24;16.85;;;9.07;;
51594;SDS011;37677;53.254;6.594;2023-12-14T03:34:59;15.93;;;8.82;;
51594;SDS011;37677;53.254;6.594;2023-12-14T03:37:28;15.38;;;8.80;;
51594;SDS011;37677;53.254;6.594;2023-12-14T03:39:54;15.23;;;9.25;;
51594;SDS011;37677;53.254;6.594;2023-12-14T03:42:28;16.77;;;9.85;;
51594;SDS011;37677;53.254;6.594;2023-12-14T03:44:55;14.32;;;9.95;;
51594;SDS011;37677;53.254;6.594;2023-12-14T03:47:27;14.18;;;10.35;;
51594;SDS011;37677;53.254;6.594;2023-12-14T03:49:57;15.68;;;9.88;;
51594;SDS011;37677;53.254;6.594;2023-12-14T03:52:23;17.90;;;10.43;;
51594;SDS011;37677;53.254;6.594;2023-12-14T03:54:49;15.48;;;9.88;;
51594;SDS011;37677;53.254;6.594;2023-12-14T03:57:15;13.90;;;10.10;;
51594;SDS011;37677;53.254;6.594;2023-12-14T03:59:44;17.73;;;10.00;;
51594;SDS011;37677;53.254;6.594;2023-12-14T04:02:11;15.20;;;9.68;;
51594;SDS011;37677;53.254;6.594;2023-12-14T04:04:37;16.20;;;9.85;;
51594;SDS011;37677;53.254;6.594;2023-12-14T04:07:05;13.60;;;9.65;;
51594;SDS011;37677;53.254;6.594;2023-12-14T04:09:37;16.08;;;9.93;;
51594;SDS011;37677;53.254;6.594;2023-12-14T04:12:03;16.90;;;10.52;;
51594;SDS011;37677;53.254;6.594;2023-12-14T04:14:29;23.00;;;11.38;;
51594;SDS011;37677;53.254;6.594;2023-12-14T04:16:56;16.33;;;10.80;;
51594;SDS011;37677;53.254;6.594;2023-12-14T04:19:22;15.63;;;10.00;;
51594;SDS011;37677;53.254;6.594;2023-12-14T04:21:58;15.10;;;10.57;;
51594;SDS011;37677;53.254;6.594;2023-12-14T04:26:50;15.00;;;10.40;;
51594;SDS011;37677;53.254;6.594;2023-12-14T04:29:16;17.60;;;10.07;;
51594;SDS011;37677;53.254;6.594;2023-12-14T04:31:42;18.15;;;10.77;;
51594;SDS011;37677;53.254;6.594;2023-12-14T04:34:11;14.95;;;10.77;;
51594;SDS011;37677;53.254;6.594;2023-12-14T04:39:11;15.90;;;10.63;;
51594;SDS011;37677;53.254;6.594;2023-12-14T04:41:38;15.35;;;10.00;;
51594;SDS011;37677;53.254;6.594;2023-12-14T04:44:04;15.32;;;11.23;;
51594;SDS011;37677;53.254;6.594;2023-12-14T04:46:30;18.23;;;10.85;;
51594;SDS011;37677;53.254;6.594;2023-12-14T04:48:56;18.38;;;9.82;;
51594;SDS011;37677;53.254;6.594;2023-12-14T04:51:22;14.60;;;10.70;;
51594;SDS011;37677;53.254;6.594;2023-12-14T04:53:49;14.18;;;9.50;;
51594;SDS011;37677;53.254;6.594;2023-12-14T04:56:16;17.15;;;9.88;;
51594;SDS011;37677;53.254;6.594;2023-12-14T04:58:45;16.00;;;10.13;;
51594;SDS011;37677;53.254;6.594;2023-12-14T05:01:11;17.05;;;9.98;;
51594;SDS011;37677;53.254;6.594;2023-12-14T05:03:38;15.55;;;9.85;;
51594;SDS011;37677;53.254;6.594;2023-12-14T05:06:06;15.93;;;9.95;;
51594;SDS011;37677;53.254;6.594;2023-12-14T05:08:32;14.38;;;9.75;;
51594;SDS011;37677;53.254;6.594;2023-12-14T05:10:59;14.45;;;10.13;;
51594;SDS011;37677;53.254;6.594;2023-12-14T05:13:25;13.88;;;9.85;;
51594;SDS011;37677;53.254;6.594;2023-12-14T05:15:51;14.52;;;9.50;;
51594;SDS011;37677;53.254;6.594;2023-12-14T05:18:23;16.75;;;10.23;;
51594;SDS011;37677;53.254;6.594;2023-12-14T05:20:50;14.07;;;9.52;;
51594;SDS011;37677;53.254;6.594;2023-12-14T05:23:16;17.17;;;9.48;;
51594;SDS011;37677;53.254;6.594;2023-12-14T05:25:43;17.13;;;9.85;;
51594;SDS011;37677;53.254;6.594;2023-12-14T05:28:09;15.48;;;9.55;;
51594;SDS011;37677;53.254;6.594;2023-12-14T05:30:37;14.02;;;9.93;;
51594;SDS011;37677;53.254;6.594;2023-12-14T05:33:03;17.65;;;10.82;;
51594;SDS011;37677;53.254;6.594;2023-12-14T05:35:29;16.52;;;10.57;;
51594;SDS011;37677;53.254;6.594;2023-12-14T05:38:03;17.00;;;9.90;;
51594;SDS011;37677;53.254;6.594;2023-12-14T05:43:20;17.33;;;10.20;;
51594;SDS011;37677;53.254;6.594;2023-12-14T05:45:46;14.60;;;10.23;;
51594;SDS011;37677;53.254;6.594;2023-12-14T05:48:12;14.27;;;10.02;;
51594;SDS011;37677;53.254;6.594;2023-12-14T05:50:38;14.75;;;9.55;;
51594;SDS011;37677;53.254;6.594;2023-12-14T05:53:04;17.17;;;10.27;;
51594;SDS011;37677;53.254;6.594;2023-12-14T05:55:30;17.13;;;9.75;;
51594;SDS011;37677;53.254;6.594;2023-12-14T05:57:57;18.40;;;9.85;;
51594;SDS011;37677;53.254;6.594;2023-12-14T06:00:23;14.57;;;10.15;;
51594;SDS011;37677;53.254;6.594;2023-12-14T06:02:49;12.40;;;9.20;;
51594;SDS011;37677;53.254;6.594;2023-12-14T06:05:16;14.98;;;9.30;;
51594;SDS011;37677;53.254;6.594;2023-12-14T06:07:42;15.60;;;9.43;;
51594;SDS011;37677;53.254;6.594;2023-12-14T06:10:09;11.60;;;8.73;;
51594;SDS011;37677;53.254;6.594;2023-12-14T06:12:45;10.85;;;9.02;;
51594;SDS011;37677;53.254;6.594;2023-12-14T06:15:12;14.98;;;9.75;;
51594;SDS011;37677;53.254;6.594;2023-12-14T06:17:38;16.48;;;9.77;;
51594;SDS011;37677;53.254;6.594;2023-12-14T06:20:06;13.48;;;8.95;;
51594;SDS011;37677;53.254;6.594;2023-12-14T06:22:38;15.15;;;8.65;;
51594;SDS011;37677;53.254;6.594;2023-12-14T06:25:04;12.95;;;9.02;;
51594;SDS011;37677;53.254;6.594;2023-12-14T06:27:30;13.25;;;9.23;;
51594;SDS011;37677;53.254;6.594;2023-12-14T06:29:56;12.93;;;8.43;;
51594;SDS011;37677;53.254;6.594;2023-12-14T06:32:22;12.40;;;8.68;;
51594;SDS011;37677;53.254;6.594;2023-12-14T06:34:49;15.23;;;8.93;;
51594;SDS011;37677;53.254;6.594;2023-12-14T06:37:15;13.73;;;8.63;;
51594;SDS011;37677;53.254;6.594;2023-12-14T06:39:42;14.43;;;9.80;;
51594;SDS011;37677;53.254;6.594;2023-12-14T06:42:08;14.68;;;9.27;;
51594;SDS011;37677;53.254;6.594;2023-12-14T06:44:40;13.23;;;8.93;;
51594;SDS011;37677;53.254;6.594;2023-12-14T06:49:38;13.52;;;8.70;;
51594;SDS011;37677;53.254;6.594;2023-12-14T06:52:06;14.80;;;9.45;;
51594;SDS011;37677;53.254;6.594;2023-12-14T06:54:32;13.13;;;9.70;;
51594;SDS011;37677;53.254;6.594;2023-12-14T06:56:59;16.45;;;9.82;;
51594;SDS011;37677;53.254;6.594;2023-12-14T06:59:25;13.48;;;9.50;;
51594;SDS011;37677;53.254;6.594;2023-12-14T07:01:51;12.20;;;8.85;;
51594;SDS011;37677;53.254;6.594;2023-12-14T07:04:18;11.63;;;8.93;;
51594;SDS011;37677;53.254;6.594;2023-12-14T07:06:49;12.52;;;9.25;;
51594;SDS011;37677;53.254;6.594;2023-12-14T07:09:16;14.63;;;10.10;;
51594;SDS011;37677;53.254;6.594;2023-12-14T07:11:42;14.82;;;10.02;;
51594;SDS011;37677;53.254;6.594;2023-12-14T07:14:08;15.02;;;9.77;;
51594;SDS011;37677;53.254;6.594;2023-12-14T07:16:38;13.73;;;10.13;;
51594;SDS011;37677;53.254;6.594;2023-12-14T07:19:04;16.35;;;10.18;;
51594;SDS011;37677;53.254;6.594;2023-12-14T07:21:34;14.45;;;10.63;;
51594;SDS011;37677;53.254;6.594;2023-12-14T07:24:01;16.30;;;9.60;;
51594;SDS011;37677;53.254;6.594;2023-12-14T07:26:27;12.18;;;9.50;;
51594;SDS011;37677;53.254;6.594;2023-12-14T07:28:53;13.63;;;10.70;;
51594;SDS011;37677;53.254;6.594;2023-12-14T07:31:19;18.20;;;10.85;;
51594;SDS011;37677;53.254;6.594;2023-12-14T07:33:45;13.90;;;10.40;;
51594;SDS011;37677;53.254;6.594;2023-12-14T07:36:12;15.00;;;9.63;;
51594;SDS011;37677;53.254;6.594;2023-12-14T07:38:39;16.27;;;11.48;;
51594;SDS011;37677;53.254;6.594;2023-12-14T07:41:05;19.08;;;11.27;;
51594;SDS011;37677;53.254;6.594;2023-12-14T07:43:31;15.70;;;10.60;;
51594;SDS011;37677;53.254;6.594;2023-12-14T07:45:57;17.48;;;10.77;;
51594;SDS011;37677;53.254;6.594;2023-12-14T07:48:23;17.05;;;10.75;;
51594;SDS011;37677;53.254;6.594;2023-12-14T07:50:49;15.25;;;10.43;;
51594;SDS011;37677;53.254;6.594;2023-12-14T07:53:16;17.45;;;10.70;;
51594;SDS011;37677;53.254;6.594;2023-12-14T07:55:44;14.00;;;9.63;;
51594;SDS011;37677;53.254;6.594;2023-12-14T07:58:10;19.30;;;11.18;;
51594;SDS011;37677;53.254;6.594;2023-12-14T08:00:38;18.35;;;10.95;;
51594;SDS011;37677;53.254;6.594;2023-12-14T08:03:04;15.80;;;11.27;;
51594;SDS011;37677;53.254;6.594;2023-12-14T08:05:30;20.92;;;10.80;;
51594;SDS011;37677;53.254;6.594;2023-12-14T08:07:56;22.02;;;11.35;;
51594;SDS011;37677;53.254;6.594;2023-12-14T08:10:22;16.00;;;11.60;;
51594;SDS011;37677;53.254;6.594;2023-12-14T08:12:48;17.77;;;11.43;;
51594;SDS011;37677;53.254;6.594;2023-12-14T08:15:16;19.38;;;12.20;;
51594;SDS011;37677;53.254;6.594;2023-12-14T08:17:42;17.77;;;10.70;;
51594;SDS011;37677;53.254;6.594;2023-12-14T08:20:08;14.88;;;11.30;;
51594;SDS011;37677;53.254;6.594;2023-12-14T08:22:36;18.13;;;11.05;;
51594;SDS011;37677;53.254;6.594;2023-12-14T08:25:02;18.42;;;11.57;;
51594;SDS011;37677;53.254;6.594;2023-12-14T08:27:28;16.02;;;11.23;;
51594;SDS011;37677;53.254;6.594;2023-12-14T08:29:55;18.40;;;11.57;;
51594;SDS011;37677;53.254;6.594;2023-12-14T08:32:21;13.48;;;10.52;;
51594;SDS011;37677;53.254;6.594;2023-12-14T08:34:47;15.13;;;10.45;;
51594;SDS011;37677;53.254;6.594;2023-12-14T08:37:13;16.63;;;10.90;;
51594;SDS011;37677;53.254;6.594;2023-12-14T08:39:39;14.63;;;10.23;;
51594;SDS011;37677;53.254;6.594;2023-12-14T08:42:05;20.60;;;11.85;;
51594;SDS011;37677;53.254;6.594;2023-12-14T08:44:31;14.45;;;10.20;;
51594;SDS011;37677;53.254;6.594;2023-12-14T08:46:57;18.63;;;11.85;;
51594;SDS011;37677;53.254;6.594;2023-12-14T08:49:23;20.05;;;12.75;;
51594;SDS011;37677;53.254;6.594;2023-12-14T08:51:49;14.15;;;11.18;;
51594;SDS011;37677;53.254;6.594;2023-12-14T08:54:15;16.23;;;11.35;;
51594;SDS011;37677;53.254;6.594;2023-12-14T08:56:46;19.33;;;11.93;;
51594;SDS011;37677;53.254;6.594;2023-12-14T08:59:15;16.33;;;12.43;;
51594;SDS011;37677;53.254;6.594;2023-12-14T09:01:41;18.73;;;12.30;;
51594;SDS011;37677;53.254;6.594;2023-12-14T09:04:07;19.20;;;12.60;;
51594;SDS011;37677;53.254;6.594;2023-12-14T09:06:33;18.00;;;11.60;;
51594;SDS011;37677;53.254;6.594;2023-12-14T09:08:59;24.52;;;12.38;;
51594;SDS011;37677;53.254;6.594;2023-12-14T09:11:25;18.85;;;11.43;;
51594;SDS011;37677;53.254;6.594;2023-12-14T09:13:51;14.60;;;10.82;;
51594;SDS011;37677;53.254;6.594;2023-12-14T09:16:17;15.00;;;11.25;;
51594;SDS011;37677;53.254;6.594;2023-12-14T09:18:43;18.60;;;11.45;;
51594;SDS011;37677;53.254;6.594;2023-12-14T09:21:09;17.38;;;11.02;;
51594;SDS011;37677;53.254;6.594;2023-12-14T09:23:35;21.33;;;11.35;;
51594;SDS011;37677;53.254;6.594;2023-12-14T09:26:01;16.58;;;11.35;;
51594;SDS011;37677;53.254;6.594;2023-12-14T09:28:27;17.35;;;12.52;;
51594;SDS011;37677;53.254;6.594;2023-12-14T09:30:53;19.25;;;11.20;;
51594;SDS011;37677;53.254;6.594;2023-12-14T09:33:19;13.85;;;10.07;;
51594;SDS011;37677;53.254;6.594;2023-12-14T09:35:45;19.05;;;12.15;;
51594;SDS011;37677;53.254;6.594;2023-12-14T09:38:12;15.95;;;10.55;;
51594;SDS011;37677;53.254;6.594;2023-12-14T09:40:41;13.82;;;10.77;;
51594;SDS011;37677;53.254;6.594;2023-12-14T09:43:07;18.85;;;11.43;;
51594;SDS011;37677;53.254;6.594;2023-12-14T09:45:34;16.67;;;11.38;;
51594;SDS011;37677;53.254;6.594;2023-12-14T09:48:00;16.45;;;11.07;;
51594;SDS011;37677;53.254;6.594;2023-12-14T09:50:27;14.32;;;10.70;;
51594;SDS011;37677;53.254;6.594;2023-12-14T09:52:53;13.55;;;10.68;;
51594;SDS011;37677;53.254;6.594;2023-12-14T09:55:19;15.40;;;10.95;;
51594;SDS011;37677;53.254;6.594;2023-12-14T09:57:45;20.17;;;11.65;;
51594;SDS011;37677;53.254;6.594;2023-12-14T10:00:11;16.05;;;11.77;;
51594;SDS011;37677;53.254;6.594;2023-12-14T10:02:39;16.40;;;11.15;;
51594;SDS011;37677;53.254;6.594;2023-12-14T10:05:08;17.10;;;11.88;;
51594;SDS011;37677;53.254;6.594;2023-12-14T10:07:40;19.90;;;12.63;;
51594;SDS011;37677;53.254;6.594;2023-12-14T10:10:11;13.45;;;10.32;;
51594;SDS011;37677;53.254;6.594;2023-12-14T10:12:51;17.45;;;11.55;;
51594;SDS011;37677;53.254;6.594;2023-12-14T10:15:20;16.58;;;11.68;;
51594;SDS011;37677;53.254;6.594;2023-12-14T10:17:50;14.43;;;10.38;;
51594;SDS011;37677;53.254;6.594;2023-12-14T10:20:22;16.90;;;11.25;;
51594;SDS011;37677;53.254;6.594;2023-12-14T10:22:49;15.82;;;10.95;;
51594;SDS011;37677;53.254;6.594;2023-12-14T10:25:15;16.08;;;12.07;;
51594;SDS011;37677;53.254;6.594;2023-12-14T10:27:42;14.98;;;11.07;;
51594;SDS011;37677;53.254;6.594;2023-12-14T10:30:08;14.05;;;10.65;;
51594;SDS011;37677;53.254;6.594;2023-12-14T10:32:37;18.65;;;11.27;;
51594;SDS011;37677;53.254;6.594;2023-12-14T10:35:05;19.63;;;11.43;;
51594;SDS011;37677;53.254;6.594;2023-12-14T10:37:31;15.32;;;11.38;;
51594;SDS011;37677;53.254;6.594;2023-12-14T10:39:58;16.52;;;11.15;;
51594;SDS011;37677;53.254;6.594;2023-12-14T10:42:25;15.30;;;11.05;;
51594;SDS011;37677;53.254;6.594;2023-12-14T10:44:53;20.73;;;11.93;;
51594;SDS011;37677;53.254;6.594;2023-12-14T10:47:20;13.32;;;10.98;;
51594;SDS011;37677;53.254;6.594;2023-12-14T10:49:46;17.05;;;11.43;;
51594;SDS011;37677;53.254;6.594;2023-12-14T10:52:14;18.20;;;11.98;;
51594;SDS011;37677;53.254;6.594;2023-12-14T10:54:40;19.23;;;11.52;;
51594;SDS011;37677;53.254;6.594;2023-12-14T10:57:07;16.48;;;11.75;;
51594;SDS011;37677;53.254;6.594;2023-12-14T10:59:34;22.25;;;12.10;;
51594;SDS011;37677;53.254;6.594;2023-12-14T11:02:23;16.73;;;11.90;;
51594;SDS011;37677;53.254;6.594;2023-12-14T11:04:59;16.27;;;11.20;;
51594;SDS011;37677;53.254;6.594;2023-12-14T11:07:46;17.05;;;11.48;;
51594;SDS011;37677;53.254;6.594;2023-12-14T11:10:12;15.05;;;11.35;;
51594;SDS011;37677;53.254;6.594;2023-12-14T11:12:55;17.40;;;12.40;;
51594;SDS011;37677;53.254;6.594;2023-12-14T11:15:22;15.73;;;11.50;;
51594;SDS011;37677;53.254;6.594;2023-12-14T11:23:15;21.35;;;12.43;;
51594;SDS011;37677;53.254;6.594;2023-12-14T11:25:49;17.05;;;11.38;;
51594;SDS011;37677;53.254;6.594;2023-12-14T11:28:15;18.90;;;11.82;;
51594;SDS011;37677;53.254;6.594;2023-12-14T11:30:43;17.50;;;12.57;;
51594;SDS011;37677;53.254;6.594;2023-12-14T11:33:10;18.70;;;12.70;;
51594;SDS011;37677;53.254;6.594;2023-12-14T11:35:37;18.80;;;12.18;;
51594;SDS011;37677;53.254;6.594;2023-12-14T11:38:03;14.55;;;11.32;;
51594;SDS011;37677;53.254;6.594;2023-12-14T11:40:35;17.45;;;13.02;;
51594;SDS011;37677;53.254;6.594;2023-12-14T11:43:02;17.05;;;11.60;;
51594;SDS011;37677;53.254;6.594;2023-12-14T11:45:38;17.00;;;12.63;;
51594;SDS011;37677;53.254;6.594;2023-12-14T11:48:04;17.23;;;12.43;;
51594;SDS011;37677;53.254;6.594;2023-12-14T11:50:33;16.55;;;13.07;;
51594;SDS011;37677;53.254;6.594;2023-12-14T11:53:00;21.85;;;13.02;;
51594;SDS011;37677;53.254;6.594;2023-12-14T11:55:28;19.70;;;13.48;;
51594;SDS011;37677;53.254;6.594;2023-12-14T11:57:55;22.75;;;13.63;;
51594;SDS011;37677;53.254;6.594;2023-12-14T12:00:28;18.80;;;13.27;;
51594;SDS011;37677;53.254;6.594;2023-12-14T12:03:10;19.40;;;13.45;;
51594;SDS011;37677;53.254;6.594;2023-12-14T12:08:03;20.80;;;12.43;;
51594;SDS011;37677;53.254;6.594;2023-12-14T12:20:30;16.55;;;11.32;;
51594;SDS011;37677;53.254;6.594;2023-12-14T12:22:57;15.65;;;12.05;;
51594;SDS011;37677;53.254;6.594;2023-12-14T12:25:23;18.73;;;11.65;;
51594;SDS011;37677;53.254;6.594;2023-12-14T12:27:49;15.15;;;10.75;;
51594;SDS011;37677;53.254;6.594;2023-12-14T12:30:17;13.13;;;10.40;;
51594;SDS011;37677;53.254;6.594;2023-12-14T12:32:44;15.60;;;10.68;;
51594;SDS011;37677;53.254;6.594;2023-12-14T12:35:10;14.57;;;9.52;;
51594;SDS011;37677;53.254;6.594;2023-12-14T12:37:39;15.52;;;10.48;;
51594;SDS011;37677;53.254;6.594;2023-12-14T12:40:07;12.35;;;10.32;;
51594;SDS011;37677;53.254;6.594;2023-12-14T12:42:34;12.45;;;10.38;;
51594;SDS011;37677;53.254;6.594;2023-12-14T12:45:00;16.02;;;10.68;;
51594;SDS011;37677;53.254;6.594;2023-12-14T12:47:26;14.52;;;10.32;;
51594;SDS011;37677;53.254;6.594;2023-12-14T12:50:05;16.23;;;11.55;;
51594;SDS011;37677;53.254;6.594;2023-12-14T12:52:31;16.88;;;11.25;;
51594;SDS011;37677;53.254;6.594;2023-12-14T12:54:57;14.82;;;10.68;;
51594;SDS011;37677;53.254;6.594;2023-12-14T12:57:23;15.05;;;10.80;;
51594;SDS011;37677;53.254;6.594;2023-12-14T12:59:50;16.40;;;10.57;;
51594;SDS011;37677;53.254;6.594;2023-12-14T13:02:17;13.27;;;10.45;;
51594;SDS011;37677;53.254;6.594;2023-12-14T13:04:43;13.48;;;10.07;;
51594;SDS011;37677;53.254;6.594;2023-12-14T13:07:10;16.33;;;11.48;;
51594;SDS011;37677;53.254;6.594;2023-12-14T13:09:37;14.02;;;10.35;;
51594;SDS011;37677;53.254;6.594;2023-12-14T13:12:03;14.20;;;10.82;;
51594;SDS011;37677;53.254;6.594;2023-12-14T13:14:30;13.85;;;11.05;;
51594;SDS011;37677;53.254;6.594;2023-12-14T13:16:59;16.75;;;10.70;;
51594;SDS011;37677;53.254;6.594;2023-12-14T13:19:25;13.23;;;10.75;;
51594;SDS011;37677;53.254;6.594;2023-12-14T13:21:51;13.95;;;10.77;;
51594;SDS011;37677;53.254;6.594;2023-12-14T13:24:17;15.20;;;10.68;;
51594;SDS011;37677;53.254;6.594;2023-12-14T13:26:45;13.57;;;10.63;;
51594;SDS011;37677;53.254;6.594;2023-12-14T13:29:11;17.33;;;11.57;;
51594;SDS011;37677;53.254;6.594;2023-12-14T13:31:38;16.08;;;10.50;;
51594;SDS011;37677;53.254;6.594;2023-12-14T13:34:05;13.85;;;9.57;;
51594;SDS011;37677;53.254;6.594;2023-12-14T13:36:31;17.17;;;11.23;;
51594;SDS011;37677;53.254;6.594;2023-12-14T13:39:03;13.68;;;10.05;;
51594;SDS011;37677;53.254;6.594;2023-12-14T13:41:31;15.63;;;10.48;;
51594;SDS011;37677;53.254;6.594;2023-12-14T13:43:59;12.70;;;9.93;;
51594;SDS011;37677;53.254;6.594;2023-12-14T13:46:25;14.32;;;10.75;;
51594;SDS011;37677;53.254;6.594;2023-12-14T13:48:52;13.57;;;10.65;;
51594;SDS011;37677;53.254;6.594;2023-12-14T13:51:18;15.02;;;10.52;;
51594;SDS011;37677;53.254;6.594;2023-12-14T13:53:44;12.13;;;9.98;;
51594;SDS011;37677;53.254;6.594;2023-12-14T13:56:10;14.82;;;10.55;;
51594;SDS011;37677;53.254;6.594;2023-12-14T13:58:36;13.80;;;10.48;;
51594;SDS011;37677;53.254;6.594;2023-12-14T14:01:04;14.13;;;9.80;;
51594;SDS011;37677;53.254;6.594;2023-12-14T14:03:34;14.13;;;10.80;;
51594;SDS011;37677;53.254;6.594;2023-12-14T14:06:00;14.07;;;11.05;;
51594;SDS011;37677;53.254;6.594;2023-12-14T14:08:27;15.63;;;10.20;;
51594;SDS011;37677;53.254;6.594;2023-12-14T14:10:53;13.05;;;10.60;;
51594;SDS011;37677;53.254;6.594;2023-12-14T14:13:19;13.98;;;10.00;;
51594;SDS011;37677;53.254;6.594;2023-12-14T14:15:47;16.35;;;11.00;;
51594;SDS011;37677;53.254;6.594;2023-12-14T14:18:19;13.88;;;10.10;;
51594;SDS011;37677;53.254;6.594;2023-12-14T14:20:45;15.80;;;11.15;;
51594;SDS011;37677;53.254;6.594;2023-12-14T14:23:12;13.10;;;9.32;;
51594;SDS011;37677;53.254;6.594;2023-12-14T14:25:38;14.05;;;10.95;;
51594;SDS011;37677;53.254;6.594;2023-12-14T14:28:04;13.50;;;10.80;;
51594;SDS011;37677;53.254;6.594;2023-12-14T14:30:30;14.55;;;11.02;;
51594;SDS011;37677;53.254;6.594;2023-12-14T14:32:57;16.75;;;11.07;;
51594;SDS011;37677;53.254;6.594;2023-12-14T14:35:24;13.30;;;10.45;;
51594;SDS011;37677;53.254;6.594;2023-12-14T14:37:54;15.55;;;10.93;;
51594;SDS011;37677;53.254;6.594;2023-12-14T14:40:24;12.32;;;8.93;;
51594;SDS011;37677;53.254;6.594;2023-12-14T14:42:52;16.02;;;9.95;;
51594;SDS011;37677;53.254;6.594;2023-12-14T14:45:18;11.90;;;9.95;;
51594;SDS011;37677;53.254;6.594;2023-12-14T14:47:44;10.98;;;9.30;;
51594;SDS011;37677;53.254;6.594;2023-12-14T14:50:10;12.20;;;9.38;;
51594;SDS011;37677;53.254;6.594;2023-12-14T14:52:36;11.68;;;9.00;;
51594;SDS011;37677;53.254;6.594;2023-12-14T14:55:02;13.30;;;9.18;;
51594;SDS011;37677;53.254;6.594;2023-12-14T14:57:31;13.13;;;9.05;;
51594;SDS011;37677;53.254;6.594;2023-12-14T14:59:59;13.27;;;9.10;;
51594;SDS011;37677;53.254;6.594;2023-12-14T15:05:12;12.02;;;9.52;;
51594;SDS011;37677;53.254;6.594;2023-12-14T15:07:38;10.15;;;9.00;;
51594;SDS011;37677;53.254;6.594;2023-12-14T15:10:05;11.63;;;8.95;;
51594;SDS011;37677;53.254;6.594;2023-12-14T15:12:31;10.90;;;9.07;;
51594;SDS011;37677;53.254;6.594;2023-12-14T15:14:57;16.30;;;10.35;;
51594;SDS011;37677;53.254;6.594;2023-12-14T15:17:23;13.60;;;10.20;;